Flight Track Log - Related Links

Times and Time Zones

All times are in EDT time to prevent confusion due to time zone crossing. See the ASQ546T flight status page for this flight to view local times or setup timezone preferences in your user account.

Time Position Orientation Groundspeed Altitude Reporting Facility
EDT Latitude Longitude Course Direction KTS MPH feet Rate Location/Type
Tue 08:43:11 PM 29.9617 -95.3436 131° Southeast 165 190 500  Level Houston Center
Tue 08:43:42 PM 29.9450 -95.3214 131° Southeast 184 212 1,500 1,726 Climbing Houston Center
Tue 08:44:24 PM 29.9375 -95.2819 102° East 190 219 2,600 1,574 Climbing Houston Center
Tue 08:44:43 PM 29.9328 -95.2578 103° East 233 268 3,100 2,129 Climbing Houston Center
Tue 08:45:26 PM 29.9225 -95.2042 102° East 240 276 4,800 2,459 Climbing Houston Center
Tue 08:45:44 PM 29.9194 -95.1800 98° East 262 302 5,600 2,129 Climbing Houston Center
Tue 08:46:28 PM 29.9169 -95.1203 93° East 256 295 7,000 2,066 Climbing Houston Center
Tue 08:46:45 PM 29.9133 -95.0939 99° East 276 318 7,700 1,967 Climbing Houston Center
Tue 08:47:29 PM 29.9114 -95.0314 92° East 271 312 9,000 1,967 Climbing Houston Center
Tue 08:47:46 PM 29.9086 -94.9981 95° East 280 322 9,700 1,645 Climbing Houston Center
Tue 08:48:31 PM 29.9058 -94.9381 93° East 285 328 10,700 962 Climbing Houston Center
Tue 08:49:32 PM 29.8975 -94.8308 95° East 324 373 11,400 1,122 Climbing Houston Center
Tue 08:50:34 PM 29.8897 -94.7158 94° East 356 410 13,000 1,403 Climbing Houston Center
Tue 08:51:36 PM 29.8817 -94.6011 95° East 359 413 14,300 1,268 Climbing Houston Center
Tue 08:52:37 PM 29.8739 -94.4822 94° East 369 425 15,600 1,317 Climbing Houston Center
Tue 08:53:39 PM 29.8642 -94.3375 94° East 377 434 17,000 1,113 Climbing Houston Center
Tue 08:54:41 PM 29.8794 -94.2153 82° East 383 441 17,900 878 Climbing Houston Center
Tue 08:55:42 PM 29.9017 -94.0828 79° East 394 453 18,800 1,220 Climbing Houston Center
Tue 08:56:44 PM 29.9222 -93.9575 79° East 400 460 20,400 1,415 Climbing Houston Center
Tue 08:57:45 PM 29.9422 -93.8361 79° East 390 449 21,700 1,268 Climbing Houston Center
Tue 08:58:47 PM 29.9625 -93.7122 79° East 393 452 23,000 1,463 Climbing Houston Center
Tue 08:59:48 PM 29.9819 -93.5919 79° East 389 448 24,700 1,463 Climbing Houston Center
Tue 09:00:50 PM 30.0014 -93.4731 79° East 383 441 26,000 1,512 Climbing Houston Center
Tue 09:01:51 PM 30.0353 -93.3336 74° East 382 440 27,800 1,610 Climbing Houston Center
Tue 09:02:53 PM 30.0633 -93.2192 74° East 378 435 29,300 1,268 Climbing Houston Center
Tue 09:03:54 PM 30.0911 -93.1039 74° East 377 434 30,400 1,024 Climbing Houston Center
Tue 09:04:56 PM 30.1203 -92.9869 74° East 382 440 31,400 976 Climbing Houston Center
Tue 09:05:57 PM 30.1497 -92.8681 74° East 385 443 32,400 976 Climbing Houston Center
Tue 09:06:59 PM 30.1789 -92.7478 74° East 389 448 33,400 976 Climbing Houston Center
Tue 09:08:00 PM 30.2081 -92.6278 74° East 390 449 34,400 787 Climbing Houston Center
Tue 09:09:01 PM 30.2422 -92.4836 75° East 391 450 35,000 293 Climbing Houston Center
Tue 09:10:03 PM 30.2725 -92.3539 75° East 416 479 35,000  Level Houston Center
Tue 09:11:04 PM 30.3003 -92.2364 75° East 432 497 35,000  Level Houston Center
Tue 09:12:06 PM 30.3403 -92.0667 75° East 456 525 35,000  Level Houston Center
Tue 09:13:07 PM 30.3753 -91.9206 74° East 470 541 35,000  Level Houston Center
Tue 09:14:08 PM 30.4106 -91.7703 75° East 482 555 35,000  Level Houston Center
Tue 09:15:09 PM 30.4414 -91.6372 75° East 487 560 35,000  Level Houston Center
Tue 09:16:11 PM 30.4800 -91.4675 75° East 489 563 35,000  Level Houston Center
Tue 09:17:12 PM 30.5186 -91.3033 75° East 488 562 35,000  Level Houston Center
Tue 09:18:13 PM 30.5544 -91.1508 75° East 488 562 35,000  Level Houston Center
Tue 09:19:15 PM 30.5883 -90.9983 75° East 489 563 35,000  Level Houston Center
Tue 09:20:16 PM 30.6233 -90.8450 75° East 491 565 35,000  Level Houston Center
Tue 09:21:17 PM 30.6567 -90.6917 76° East 490 564 35,000  Level Houston Center
Tue 09:22:19 PM 30.6903 -90.5389 76° East 489 563 35,000  Level Houston Center
Tue 09:23:20 PM 30.7244 -90.3856 75° East 488 562 35,000  Level Houston Center
Tue 09:24:21 PM 30.7581 -90.2331 76° East 486 559 35,000  Level Houston Center
Tue 09:25:22 PM 30.7911 -90.0831 76° East 479 551 35,000  Level Houston Center
Tue 09:26:24 PM 30.8239 -89.9322 76° East 477 549 35,000  Level Houston Center
Tue 09:27:25 PM 30.8625 -89.7525 76° East 473 544 35,000  Level Houston Center
Tue 09:28:26 PM 30.8947 -89.6036 76° East 473 544 35,000  Level Houston Center
Tue 09:29:27 PM 30.9264 -89.4542 76° East 474 545 35,000  Level Houston Center
Tue 09:30:29 PM 30.9575 -89.3033 76° East 477 549 35,000  Level Houston Center
Tue 09:31:30 PM 30.9883 -89.1519 77° East 480 552 35,000  Level Houston Center
Tue 09:32:31 PM 31.0197 -89.0025 76° East 475 547 35,000  Level Houston Center
Tue 09:33:32 PM 31.0467 -88.8667 77° East 476 548 35,000  Level Houston Center
Tue 09:34:33 PM 31.0844 -88.6875 76° East 473 544 35,000  Level Houston Center
Tue 09:35:35 PM 31.1125 -88.5528 76° East 475 547 35,000  Level Houston Center
Tue 09:36:36 PM 31.1433 -88.4031 76° East 474 545 35,000  Level Houston Center
Tue 09:37:37 PM 31.1764 -88.2544 75° East 475 547 35,000  Level Houston Center
Tue 09:38:38 PM 31.2050 -88.1025 78° East 479 551 35,000  Level Houston Center
Tue 09:39:39 PM 31.2389 -87.9278 77° East 470 541 35,000  Level Houston Center
Tue 09:40:40 PM 31.2686 -87.7775 77° East 472 543 35,000  Level Houston Center
Tue 09:41:42 PM 31.2986 -87.6272 77° East 474 545 35,000  Level Houston Center
Tue 09:42:43 PM 31.3683 -87.4958 58° Northeast 481 554 35,000  Level Houston Center
Tue 09:43:44 PM 31.4553 -87.3783 49° Northeast 480 552 35,000  Level Houston Center
Tue 09:44:45 PM 31.5406 -87.2600 50° Northeast 478 550 35,000  Level Houston Center
Tue 09:45:36 PM 31.6358 -87.1806 35° Northeast 472 543 35,000  Level Atlanta Center
Tue 09:46:36 PM 31.7550 -87.0894 33° Northeast 472 543 35,000  Level Atlanta Center
Tue 09:47:36 PM 31.8675 -87.0050 33° Northeast 467 537 35,000  Level Atlanta Center
Tue 09:48:36 PM 31.9900 -86.9431 23° Northeast 467 537 35,000  Level Atlanta Center
Tue 09:49:36 PM 32.1186 -86.8908 19° North 472 543 35,000  Level Atlanta Center
Tue 09:50:36 PM 32.2408 -86.8408 19° North 477 549 35,000  Level Atlanta Center
Tue 09:51:36 PM 32.3692 -86.7906 18° North 472 543 35,000  Level Atlanta Center
Tue 09:52:36 PM 32.4664 -86.7369 25° Northeast 472 543 35,000  Level Atlanta Center
Tue 09:53:36 PM 32.5756 -86.6072 45° Northeast 462 532 35,000  Level Atlanta Center
Tue 09:54:36 PM 32.6369 -86.4661 63° Northeast 464 534 35,000  Level Atlanta Center
Tue 09:55:36 PM 32.7003 -86.3244 62° Northeast 470 541 35,000  Level Atlanta Center
Tue 09:56:36 PM 32.7569 -86.1853 64° Northeast 470 541 35,000  Level Atlanta Center
Tue 09:57:36 PM 32.8200 -86.0433 62° Northeast 470 541 35,000  Level Atlanta Center
Tue 09:58:36 PM 32.8806 -85.9014 63° Northeast 470 541 35,000  Level Atlanta Center
Tue 09:59:36 PM 32.9411 -85.7639 62° Northeast 465 535 35,000  Level Atlanta Center
Tue 10:00:36 PM 32.9906 -85.6436 64° Northeast 460 529 35,000  Level Atlanta Center
Tue 10:01:36 PM 33.0486 -85.5058 63° Northeast 460 529 35,000  Level Atlanta Center
Tue 10:02:36 PM 33.1067 -85.3731 62° Northeast 455 524 35,000  Level Atlanta Center
Tue 10:03:36 PM 33.1664 -85.2350 63° Northeast 455 524 35,000  Level Atlanta Center
Tue 10:04:36 PM 33.2242 -85.0967 63° Northeast 460 529 35,000  Level Atlanta Center
Tue 10:05:36 PM 33.2817 -84.9583 64° Northeast 460 529 35,000  Level Atlanta Center
Tue 10:06:36 PM 33.3389 -84.8197 64° Northeast 460 529 35,000  Level Atlanta Center
Tue 10:07:36 PM 33.3939 -84.6808 65° Northeast 460 529 35,000  Level Atlanta Center
Tue 10:08:36 PM 33.4531 -84.5417 63° Northeast 460 529 35,000  Level Atlanta Center
Tue 10:09:36 PM 33.5078 -84.4025 65° Northeast 460 529 35,000  Level Atlanta Center
Tue 10:10:36 PM 33.5667 -84.2608 63° Northeast 465 535 35,000  Level Atlanta Center
Tue 10:11:36 PM 33.6231 -84.1236 64° Northeast 465 535 35,000  Level Atlanta Center
Tue 10:12:36 PM 33.6814 -83.9839 63° Northeast 465 535 35,000  Level Atlanta Center
Tue 10:13:36 PM 33.7378 -83.8414 65° Northeast 465 535 35,000  Level Atlanta Center
Tue 10:14:36 PM 33.8000 -83.6889 64° Northeast 460 529 35,000  Level Atlanta Center
Tue 10:15:36 PM 33.8558 -83.5486 64° Northeast 465 535 35,000  Level Atlanta Center
Tue 10:16:36 PM 33.9158 -83.4081 63° Northeast 459 528 35,000  Level Atlanta Center
Tue 10:17:36 PM 33.9650 -83.2622 68° East 464 534 35,000  Level Atlanta Center
Tue 10:18:36 PM 34.0036 -83.1117 73° East 464 534 35,000  Level Atlanta Center
Tue 10:19:36 PM 34.0442 -82.9633 72° East 469 540 35,000  Level Atlanta Center
Tue 10:20:36 PM 34.0803 -82.8147 74° East 459 528 35,000  Level Atlanta Center
Tue 10:21:36 PM 34.1206 -82.6636 72° East 464 534 35,000  Level Atlanta Center
Tue 10:22:36 PM 34.1606 -82.5175 72° East 464 534 35,000  Level Atlanta Center
Tue 10:23:36 PM 34.1981 -82.3661 73° East 464 534 35,000  Level Atlanta Center
Tue 10:24:36 PM 34.2378 -82.2119 73° East 464 534 35,000  Level Atlanta Center
Tue 10:25:36 PM 34.2939 -82.0725 64° Northeast 464 534 35,000  Level Atlanta Center
Tue 10:26:36 PM 34.3606 -81.9375 59° Northeast 458 527 35,000  Level Atlanta Center
Tue 10:27:36 PM 34.4292 -81.8000 59° Northeast 464 534 35,000  Level Atlanta Center
Tue 10:28:36 PM 34.4956 -81.6672 59° Northeast 464 534 35,000  Level Atlanta Center
Tue 10:29:36 PM 34.5639 -81.5289 59° Northeast 474 545 35,000  Level Atlanta Center
Tue 10:30:36 PM 34.6319 -81.3931 59° Northeast 474 545 35,000  Level Atlanta Center
Tue 10:31:36 PM 34.6997 -81.2519 60° Northeast 481 554 35,000  Level Atlanta Center
Tue 10:32:36 PM 34.7675 -81.1158 59° Northeast 481 554 35,000  Level Atlanta Center
Tue 10:33:36 PM 34.8331 -80.9794 60° Northeast 481 554 35,000  Level Atlanta Center
Tue 10:34:36 PM 34.9025 -80.8375 59° Northeast 475 547 35,000  Level Atlanta Center
Tue 10:35:36 PM 34.9678 -80.7033 59° Northeast 470 541 35,000  Level Atlanta Center
Tue 10:36:36 PM 35.0289 -80.5739 60° Northeast 455 524 35,000  Level Atlanta Center
Tue 10:37:36 PM 35.0917 -80.4419 60° Northeast 449 517 35,000  Level Atlanta Center
Tue 10:39:49 PM 35.2303 -80.1536 59° Northeast 439 505 35,000  Level Washington Center
Tue 10:40:50 PM 35.2956 -80.0250 58° Northeast 445 512 35,000  Level Washington Center
Tue 10:41:50 PM 35.3569 -79.8883 61° Northeast 445 512 35,000  Level Washington Center
Tue 10:42:48 PM 35.4200 -79.7592 59° Northeast 445 512 35,000  Level Washington Center
Tue 10:43:50 PM 35.4808 -79.6297 60° Northeast 445 512 35,000  Level Washington Center
Tue 10:44:49 PM 35.5436 -79.4978 60° Northeast 440 506 35,000  Level Washington Center
Tue 10:45:50 PM 35.6083 -79.3628 59° Northeast 440 506 35,000 -252 Level Washington Center
Tue 10:46:48 PM 35.6689 -79.2278 61° Northeast 440 506 34,500 -1,220 Descending Washington Center
Tue 10:47:48 PM 35.7314 -79.0950 60° Northeast 440 506 32,600 -3,223 Descending Washington Center
Tue 10:48:49 PM 35.7958 -78.9544 60° Northeast 451 519 28,000 -1,983 Descending Washington Center
Tue 10:49:49 PM 35.8622 -78.8136 60° Northeast 462 532 28,600  Climbing Washington Center
Tue 10:50:50 PM 35.8872 -78.6583 79° East 454 522 28,000 -655 Descending Washington Center
Tue 10:51:48 PM 35.9036 -78.5050 82° East 454 522 27,300 -1,361 Descending Washington Center
Tue 10:52:49 PM 35.9178 -78.3517 83° East 449 517 25,300 -1,785 Descending Washington Center
Tue 10:53:49 PM 35.9311 -78.2214 83° East 441 507 23,700 -1,600 Descending Washington Center
Tue 10:54:49 PM 35.9444 -78.0781 83° East 429 494 22,100 -1,300 Descending Washington Center
Tue 10:55:49 PM 35.9578 -77.9400 83° East 417 480 21,100 -555 Descending Washington Center
Tue 10:56:48 PM 35.9897 -77.8047 74° East 406 467 21,000 -50 Descending Washington Center
Tue 10:57:48 PM 36.0481 -77.6858 59° Northeast 396 456 21,000  Level Washington Center
Tue 10:58:48 PM 36.1064 -77.5664 59° Northeast 396 456 21,000 -550 Level Washington Center
Tue 10:59:48 PM 36.1625 -77.4494 59° Northeast 396 456 19,900 -1,550 Descending Washington Center
Tue 11:00:48 PM 36.2164 -77.3322 60° Northeast 396 456 17,900 -1,835 Descending Washington Center
Tue 11:01:49 PM 36.2703 -77.2203 59° Northeast 396 456 16,200 -1,981 Descending Washington Center
Tue 11:02:31 PM 36.3131 -77.1333 59° Northeast 365 420 14,500 -2,200 Descending Washington Center
Tue 11:02:49 PM 36.3261 -77.0975 66° East 377 434 14,000 -1,935 Descending Washington Center
Tue 11:03:33 PM 36.3625 -77.0236 59° Northeast 360 414 12,500 -2,034 Descending Washington Center
Tue 11:03:48 PM 36.3775 -76.9928 59° Northeast 365 420 12,000 -1,475 Descending Washington Center
Tue 11:04:34 PM 36.4158 -76.9239 55° Northeast 354 407 11,000 -968 Descending Washington Center
Tue 11:04:50 PM 36.4328 -76.8956 53° Northeast 353 406 11,000  Level Washington Center
Tue 11:05:34 PM 36.4731 -76.8267 54° Northeast 344 396 11,000 -102 Level Washington Center
Tue 11:05:49 PM 36.4881 -76.8011 54° Northeast 346 398 10,900 -1,082 Descending Washington Center
Tue 11:06:35 PM 36.5261 -76.7369 54° Northeast 289 333 9,900 -1,570 Descending Washington Center
Tue 11:07:36 PM 36.5708 -76.6522 57° Northeast 288 331 8,100 -1,672 Descending Washington Center
Tue 11:08:37 PM 36.6153 -76.5728 55° Northeast 285 328 6,500 -1,537 Descending Washington Center
Tue 11:09:37 PM 36.6597 -76.4956 54° Northeast 270 311 5,000 -1,339 Descending Washington Center
Tue 11:10:38 PM 36.6997 -76.4183 57° Northeast 260 299 3,800 -1,008 Descending Washington Center
Tue 11:11:48 PM 36.7525 -76.3411 50° Northeast 257 296 2,800 -639 Descending Washington Center
Tue 11:12:40 PM 36.7922 -76.3025 38° Northeast 211 243 2,500 -643 Descending Washington Center
Tue 11:13:40 PM 36.8258 -76.2692 38° Northeast 131 151 1,600 -843 Descending Washington Center
Tue 11:14:41 PM 36.8572 -76.2408 36° Northeast 130 150 800 -787 Descending Washington Center

Login

Don't have an account? Register now (free) for customized features, flight alerts, and more!